Stowmarket, United Kingdom
Current Conditions -  °F | °C
As of 1:50 PM on Saturday 22 Nov 2014 (Local Time) from EGUW Reporting Station
Rain Showers Rain Showers  
Wind Chill: 54°   Ceiling: 200
Heat Index: 54°   Visibility: 3mi
Dew Point: 54°   Wind: 7mph
Humidity: 100%   Direction: 170°S
Pressure: 29.91"   Gusts: NA
Location:  52.19°N, 1°E
Report Text: EGUW 221350Z AUTO 17006KT 4800 -SHRA BKN002/// BKN060/// 12/12 Q1013
Loading
Personal Weather Stations






























Interactive Weather Map New forecast layout! Learn more

10-Day Weather Forecast

Advertisements
Track Severe Weather on mobile